Time,TemperatureF,DewpointF,PressureIn,WindDirection,WindDirectionDegrees,WindSpeedMPH,WindSpeedGustMPH,Humidity,HourlyPrecipIn,Conditions,Clouds,dailyrainin,SoftwareType,DateUTC
2013-07-02 00:01:00,63.6,49.9,30.03,North,350,2.3,2.3,61,0.00,,---,0.00,VWS V14.01,2013-07-02 04:01:00,
2013-07-02 00:02:00,63.6,49.9,30.03,North,350,2.3,2.3,61,0.00,,---,0.00,VWS V14.01,2013-07-02 04:02:00,
2013-07-02 00:03:00,63.6,49.9,30.03,North,350,3.6,3.6,61,0.00,,---,0.00,VWS V14.01,2013-07-02 04:03:00,
2013-07-02 00:08:00,63.4,49.3,30.03,NE,35,4.3,4.3,60,0.00,,---,0.00,VWS V14.01,2013-07-02 04:08:00,
2013-07-02 00:13:00,63.4,48.4,30.03,North,350,3.6,5.0,58,0.00,,---,0.00,VWS V14.01,2013-07-02 04:13:00,
2013-07-02 00:18:00,63.3,47.8,30.03,NE,35,1.3,5.0,57,0.00,,---,0.00,VWS V14.01,2013-07-02 04:18:00,
2013-07-02 00:23:00,63.3,47.3,30.03,SE,125,3.0,3.0,56,0.00,,---,0.00,VWS V14.01,2013-07-02 04:23:00,
2013-07-02 00:28:00,63.1,47.6,30.03,NE,35,0.0,2.0,57,0.00,,---,0.00,VWS V14.01,2013-07-02 04:28:00,
2013-07-02 00:33:00,63.1,47.2,30.03,NE,35,4.6,4.6,56,0.00,,---,0.00,VWS V14.01,2013-07-02 04:33:00,
2013-07-02 00:38:00,62.9,47.5,30.03,NE,35,0.0,0.0,57,0.00,,---,0.00,VWS V14.01,2013-07-02 04:38:00,
2013-07-02 00:43:00,62.9,47.5,30.03,North,350,0.0,0.0,57,0.00,,---,0.00,VWS V14.01,2013-07-02 04:43:00,
2013-07-02 00:48:00,62.7,47.3,30.03,NW,305,2.0,2.0,57,0.00,,---,0.00,VWS V14.01,2013-07-02 04:48:00,
2013-07-02 00:54:00,62.5,47.1,30.03,East,80,3.0,3.0,57,0.00,,---,0.00,VWS V14.01,2013-07-02 04:54:00,
2013-07-02 00:59:00,62.5,47.1,30.03,North,350,1.7,2.3,57,0.00,,---,0.00,VWS V14.01,2013-07-02 04:59:00,
2013-07-02 01:04:00,62.5,47.1,30.03,NE,35,0.0,0.0,57,0.00,,---,0.00,VWS V14.01,2013-07-02 05:04:00,
2013-07-02 01:09:00,62.4,46.0,30.03,NE,35,3.6,3.6,55,0.00,,---,0.00,VWS V14.01,2013-07-02 05:09:00,
2013-07-02 01:14:00,62.4,46.5,30.03,NW,305,4.6,4.6,56,0.00,,---,0.00,VWS V14.01,2013-07-02 05:14:00,
2013-07-02 01:19:00,62.4,46.0,30.03,NE,35,2.0,2.0,55,0.00,,---,0.00,VWS V14.01,2013-07-02 05:19:00,
2013-07-02 01:24:00,62.2,46.3,30.03,North,350,3.3,3.6,56,0.00,,---,0.00,VWS V14.01,2013-07-02 05:24:00,
2013-07-02 01:29:00,62.0,45.7,30.03,SE,125,2.3,3.0,55,0.00,,---,0.00,VWS V14.01,2013-07-02 05:29:00,
2013-07-02 01:34:00,62.0,45.7,30.03,NE,35,0.0,0.0,55,0.00,,---,0.00,VWS V14.01,2013-07-02 05:34:00,
2013-07-02 01:39:00,62.0,45.7,30.03,NE,35,0.0,0.0,55,0.00,,---,0.00,VWS V14.01,2013-07-02 05:39:00,
2013-07-02 01:44:00,62.0,45.7,30.03,NE,35,0.0,0.0,55,0.00,,---,0.00,VWS V14.01,2013-07-02 05:44:00,
2013-07-02 01:49:00,61.8,46.0,30.03,NE,35,0.0,0.0,56,0.00,,---,0.00,VWS V14.01,2013-07-02 05:49:00,
2013-07-02 01:54:00,61.8,45.5,30.03,NE,35,3.6,3.6,55,0.00,,---,0.00,VWS V14.01,2013-07-02 05:54:00,
2013-07-02 01:59:00,61.8,45.5,30.03,North,350,0.0,0.0,55,0.00,,---,0.00,VWS V14.01,2013-07-02 05:59:00,
2013-07-02 02:04:00,61.6,45.8,30.03,NE,35,2.0,3.3,56,0.00,,---,0.00,VWS V14.01,2013-07-02 06:04:00,
2013-07-02 02:09:00,61.6,45.8,30.03,ESE,102,3.0,3.0,56,0.00,,---,0.00,VWS V14.01,2013-07-02 06:09:00,
2013-07-02 02:14:00,61.6,45.8,30.03,East,80,5.3,5.3,56,0.00,,---,0.00,VWS V14.01,2013-07-02 06:14:00,
2013-07-02 02:19:00,61.6,45.8,30.03,SE,125,1.3,3.3,56,0.00,,---,0.00,VWS V14.01,2013-07-02 06:19:00,
2013-07-02 02:24:00,61.6,45.8,30.03,NE,35,0.0,0.0,56,0.00,,---,0.00,VWS V14.01,2013-07-02 06:24:00,
2013-07-02 02:29:00,61.6,45.3,30.03,East,80,2.3,4.6,55,0.00,,---,0.00,VWS V14.01,2013-07-02 06:29:00,
2013-07-02 02:34:00,61.6,45.3,30.03,South,170,3.6,3.6,55,0.00,,---,0.00,VWS V14.01,2013-07-02 06:34:00,
2013-07-02 02:39:00,61.5,45.6,30.03,NE,35,2.0,2.0,56,0.00,,---,0.00,VWS V14.01,2013-07-02 06:39:00,
2013-07-02 02:45:00,61.3,45.9,30.03,SW,215,7.0,7.0,57,0.00,,---,0.00,VWS V14.01,2013-07-02 06:45:00,
2013-07-02 02:50:00,60.0,47.0,30.03,SW,215,7.0,7.0,62,0.00,,---,0.00,VWS V14.01,2013-07-02 06:50:00,
2013-07-02 02:55:00,59.5,47.3,30.03,SW,215,7.0,7.0,64,0.00,,---,0.00,VWS V14.01,2013-07-02 06:55:00,
2013-07-02 03:00:00,59.3,47.1,30.03,NW,305,0.0,0.0,64,0.00,,---,0.00,VWS V14.01,2013-07-02 07:00:00,
2013-07-02 03:05:00,59.3,47.5,30.03,North,350,0.0,0.0,65,0.00,,---,0.00,VWS V14.01,2013-07-02 07:05:00,
2013-07-02 03:10:00,59.5,47.3,30.03,NE,35,0.0,3.0,64,0.00,,---,0.00,VWS V14.01,2013-07-02 07:10:00,
2013-07-02 03:15:00,59.1,47.8,30.03,North,350,4.0,4.0,66,0.00,,---,0.00,VWS V14.01,2013-07-02 07:15:00,
2013-07-02 03:20:00,58.9,48.0,30.03,NE,35,2.0,2.0,67,0.00,,---,0.00,VWS V14.01,2013-07-02 07:20:00,
2013-07-02 03:25:00,58.9,48.0,30.03,North,350,3.3,3.6,67,0.00,,---,0.00,VWS V14.01,2013-07-02 07:25:00,
2013-07-02 03:30:00,58.9,48.0,30.03,NE,35,0.0,3.3,67,0.00,,---,0.00,VWS V14.01,2013-07-02 07:30:00,
2013-07-02 03:35:00,58.8,47.8,30.03,NE,35,0.0,0.0,67,0.00,,---,0.00,VWS V14.01,2013-07-02 07:35:00,
2013-07-02 03:40:00,58.9,48.8,30.03,ESE,102,0.0,0.0,69,0.00,,---,0.00,VWS V14.01,2013-07-02 07:40:00,
2013-07-02 03:45:00,58.9,49.2,30.03,NE,35,1.3,4.6,70,0.00,,---,0.00,VWS V14.01,2013-07-02 07:45:00,
2013-07-02 03:50:00,58.6,48.5,30.03,NE,35,1.7,1.7,69,0.00,,---,0.00,VWS V14.01,2013-07-02 07:50:00,
2013-07-02 03:55:00,58.6,48.8,30.03,NE,35,4.0,4.0,70,0.00,,---,0.00,VWS V14.01,2013-07-02 07:55:00,
2013-07-02 04:00:00,58.4,48.7,30.03,NE,35,4.3,4.3,70,0.00,,---,0.00,VWS V14.01,2013-07-02 08:00:00,
2013-07-02 04:05:00,58.0,48.7,30.03,NW,305,6.0,6.0,71,0.00,,---,0.00,VWS V14.01,2013-07-02 08:05:00,
2013-07-02 04:10:00,57.5,48.9,30.03,North,350,1.7,1.7,73,0.00,,---,0.00,VWS V14.01,2013-07-02 08:10:00,
2013-07-02 04:15:00,57.3,49.1,30.03,North,350,1.7,1.7,74,0.00,,---,0.00,VWS V14.01,2013-07-02 08:15:00,
2013-07-02 04:20:00,56.8,49.0,30.03,North,350,1.7,1.7,75,0.04,,---,0.04,VWS V14.01,2013-07-02 08:20:00,
2013-07-02 04:25:00,56.6,49.5,30.03,North,350,1.7,1.7,77,0.04,,---,0.04,VWS V14.01,2013-07-02 08:25:00,
2013-07-02 04:30:00,56.2,49.5,30.03,North,350,1.7,1.7,78,0.04,,---,0.04,VWS V14.01,2013-07-02 08:30:00,
2013-07-02 04:35:00,56.1,50.3,30.00,North,350,1.7,1.7,81,0.08,,---,0.08,VWS V14.01,2013-07-02 08:35:00,
2013-07-02 04:40:00,56.1,50.7,30.00,North,350,1.7,1.7,82,0.08,,---,0.08,VWS V14.01,2013-07-02 08:40:00,
2013-07-02 04:45:00,55.9,50.5,30.00,North,350,1.7,1.7,82,0.08,,---,0.08,VWS V14.01,2013-07-02 08:45:00,
2013-07-02 04:50:00,55.9,50.5,30.03,North,350,1.7,1.7,82,0.08,,---,0.08,VWS V14.01,2013-07-02 08:50:00,
2013-07-02 04:55:00,55.9,50.8,30.03,North,350,1.7,1.7,83,0.08,,---,0.08,VWS V14.01,2013-07-02 08:55:00,
2013-07-02 05:00:00,55.9,50.8,30.03,North,350,1.7,1.7,83,0.08,,---,0.08,VWS V14.01,2013-07-02 09:00:00,
2013-07-02 05:06:00,55.9,51.1,30.03,North,350,1.7,1.7,84,0.08,,---,0.08,VWS V14.01,2013-07-02 09:06:00,
2013-07-02 05:11:00,55.9,51.1,30.03,North,350,2.3,2.3,84,0.08,,---,0.08,VWS V14.01,2013-07-02 09:11:00,
2013-07-02 05:16:00,55.9,51.1,30.03,North,350,3.3,3.3,84,0.08,,---,0.08,VWS V14.01,2013-07-02 09:16:00,
2013-07-02 05:21:00,55.9,51.1,30.03,North,350,3.3,3.3,84,0.04,,---,0.08,VWS V14.01,2013-07-02 09:21:00,
2013-07-02 05:26:00,55.7,51.0,30.03,North,350,3.3,3.3,84,0.04,,---,0.08,VWS V14.01,2013-07-02 09:26:00,
2013-07-02 05:31:00,55.7,51.0,30.03,North,350,3.3,3.3,84,0.04,,---,0.08,VWS V14.01,2013-07-02 09:31:00,
2013-07-02 05:36:00,55.7,51.3,30.03,North,350,6.3,6.3,85,0.00,,---,0.08,VWS V14.01,2013-07-02 09:36:00,
2013-07-02 05:41:00,55.7,51.6,30.03,North,350,4.0,4.0,86,0.00,,---,0.08,VWS V14.01,2013-07-02 09:41:00,
2013-07-02 05:46:00,55.7,51.6,30.03,North,350,2.3,2.3,86,0.04,,---,0.12,VWS V14.01,2013-07-02 09:46:00,
2013-07-02 05:51:00,55.5,51.7,30.03,North,350,2.3,2.3,87,0.09,,---,0.17,VWS V14.01,2013-07-02 09:51:00,
2013-07-02 05:56:00,55.5,51.4,30.03,North,350,2.3,2.3,86,0.12,,---,0.20,VWS V14.01,2013-07-02 09:56:00,
2013-07-02 06:01:00,55.5,51.4,30.03,North,350,2.3,2.3,86,0.12,,---,0.20,VWS V14.01,2013-07-02 10:01:00,
2013-07-02 06:06:00,55.3,51.5,30.03,North,350,2.3,2.3,87,0.21,,---,0.29,VWS V14.01,2013-07-02 10:06:00,
2013-07-02 06:11:00,55.3,52.5,30.03,North,350,2.3,2.3,90,0.25,,---,0.33,VWS V14.01,2013-07-02 10:11:00,
2013-07-02 06:16:00,55.3,53.9,30.03,North,350,2.3,2.3,95,0.29,,---,0.37,VWS V14.01,2013-07-02 10:16:00,
2013-07-02 06:21:00,55.2,54.0,30.03,North,350,2.3,2.3,96,0.29,,---,0.37,VWS V14.01,2013-07-02 10:21:00,
2013-07-02 06:26:00,55.0,54.2,30.03,North,350,2.3,2.3,97,0.29,,---,0.00,VWS V14.01,2013-07-02 10:26:00,
2013-07-02 06:31:00,55.0,54.2,30.03,North,350,2.3,2.3,97,0.33,,---,0.41,VWS V14.01,2013-07-02 10:31:00,
2013-07-02 06:36:00,55.0,54.4,30.03,North,350,2.3,2.3,98,0.33,,---,0.41,VWS V14.01,2013-07-02 10:36:00,
2013-07-02 06:41:00,55.0,54.4,30.03,North,350,2.3,2.3,98,0.33,,---,0.41,VWS V14.01,2013-07-02 10:41:00,
2013-07-02 06:46:00,54.8,54.2,30.03,North,350,2.3,2.3,98,0.33,,---,0.41,VWS V14.01,2013-07-02 10:46:00,
2013-07-02 06:51:00,55.0,54.4,30.03,NE,35,0.0,2.3,98,0.29,,---,0.41,VWS V14.01,2013-07-02 10:51:00,
2013-07-02 06:56:00,55.0,54.4,30.03,North,350,2.3,2.3,98,0.21,,---,0.41,VWS V14.01,2013-07-02 10:56:00,
2013-07-02 07:01:00,55.0,54.4,30.03,North,350,2.3,2.3,98,0.21,,---,0.41,VWS V14.01,2013-07-02 11:01:00,
2013-07-02 07:06:00,55.0,54.4,30.03,North,350,2.3,2.3,98,0.12,,---,0.41,VWS V14.01,2013-07-02 11:06:00,
2013-07-02 07:11:00,55.0,54.4,30.03,NE,35,2.0,2.0,98,0.08,,---,0.41,VWS V14.01,2013-07-02 11:11:00,
2013-07-02 07:17:00,55.0,54.4,30.03,NE,35,2.0,2.0,98,0.04,,---,0.41,VWS V14.01,2013-07-02 11:17:00,
2013-07-02 07:22:00,55.2,54.6,30.03,NE,35,1.3,1.3,98,0.04,,---,0.41,VWS V14.01,2013-07-02 11:22:00,
2013-07-02 07:27:00,55.0,54.4,30.03,NE,35,1.3,1.3,98,0.09,,---,0.46,VWS V14.01,2013-07-02 11:27:00,
2013-07-02 07:32:00,55.2,54.6,30.03,NE,35,1.3,1.3,98,0.05,,---,0.46,VWS V14.01,2013-07-02 11:32:00,
2013-07-02 07:37:00,55.2,54.6,30.03,NE,35,1.3,1.3,98,0.05,,---,0.46,VWS V14.01,2013-07-02 11:37:00,
2013-07-02 07:42:00,55.2,54.6,30.03,NE,35,1.3,1.3,98,0.05,,---,0.46,VWS V14.01,2013-07-02 11:42:00,
2013-07-02 07:47:00,55.2,54.6,30.03,NE,35,1.3,1.3,98,0.05,,---,0.46,VWS V14.01,2013-07-02 11:47:00,
2013-07-02 07:52:00,55.3,54.8,30.03,North,350,3.0,3.0,98,0.05,,---,0.46,VWS V14.01,2013-07-02 11:52:00,
2013-07-02 07:57:00,55.3,54.8,30.03,North,350,3.0,3.0,98,0.05,,---,0.46,VWS V14.01,2013-07-02 11:57:00,
2013-07-02 08:02:00,55.3,54.8,30.03,North,350,3.0,3.0,98,0.05,,---,0.46,VWS V14.01,2013-07-02 12:02:00,
2013-07-02 08:07:00,55.3,54.8,30.03,North,350,3.0,3.0,98,0.05,,---,0.46,VWS V14.01,2013-07-02 12:07:00,
2013-07-02 08:12:00,55.5,55.0,30.03,NE,35,3.0,3.0,98,0.05,,---,0.46,VWS V14.01,2013-07-02 12:12:00,
2013-07-02 08:17:00,55.5,55.0,30.03,NE,35,3.0,3.0,98,0.05,,---,0.46,VWS V14.01,2013-07-02 12:17:00,
2013-07-02 08:22:00,55.5,55.0,30.03,NE,35,3.0,3.0,98,0.05,,---,0.46,VWS V14.01,2013-07-02 12:22:00,
2013-07-02 08:27:00,55.5,55.0,30.03,NE,35,3.0,3.0,98,0.00,,---,0.46,VWS V14.01,2013-07-02 12:27:00,
2013-07-02 08:32:00,55.7,55.2,30.03,NE,35,3.0,3.0,98,0.00,,---,0.46,VWS V14.01,2013-07-02 12:32:00,
2013-07-02 08:37:00,55.7,55.2,30.03,NE,35,3.0,3.0,98,0.00,,---,0.46,VWS V14.01,2013-07-02 12:37:00,
2013-07-02 08:42:00,56.1,55.5,30.03,NE,35,3.0,3.0,98,0.00,,---,0.46,VWS V14.01,2013-07-02 12:42:00,
2013-07-02 08:47:00,56.1,55.5,30.03,NE,35,3.0,3.0,98,0.00,,---,0.46,VWS V14.01,2013-07-02 12:47:00,
2013-07-02 08:52:00,56.2,55.7,30.03,North,350,2.3,2.3,98,0.00,,---,0.46,VWS V14.01,2013-07-02 12:52:00,
2013-07-02 08:57:00,56.2,55.7,30.03,North,350,2.3,2.3,98,0.00,,---,0.46,VWS V14.01,2013-07-02 12:57:00,
2013-07-02 09:02:00,56.4,55.9,30.03,North,350,2.3,2.3,98,0.00,,---,0.46,VWS V14.01,2013-07-02 13:02:00,
2013-07-02 09:08:00,56.4,55.9,30.03,North,350,0.0,0.0,98,0.00,,---,0.46,VWS V14.01,2013-07-02 13:08:00,
2013-07-02 09:13:00,56.6,56.0,30.03,NE,35,0.0,0.0,98,0.00,,---,0.46,VWS V14.01,2013-07-02 13:13:00,
2013-07-02 09:18:00,56.6,56.0,30.03,North,350,1.7,1.7,98,0.00,,---,0.46,VWS V14.01,2013-07-02 13:18:00,
2013-07-02 09:23:00,56.6,56.0,30.03,North,350,1.7,1.7,98,0.00,,---,0.46,VWS V14.01,2013-07-02 13:23:00,
2013-07-02 09:28:00,56.8,56.2,30.03,North,350,1.7,1.7,98,0.00,,---,0.46,VWS V14.01,2013-07-02 13:28:00,
2013-07-02 09:34:00,57.0,56.4,30.03,North,350,2.3,2.3,98,0.00,,---,0.46,VWS V14.01,2013-07-02 13:34:00,
2013-07-02 09:39:00,57.0,56.4,30.03,North,350,2.3,2.3,98,0.00,,---,0.46,VWS V14.01,2013-07-02 13:39:00,
2013-07-02 09:44:00,57.1,56.6,30.03,North,350,2.3,2.3,98,0.00,,---,0.46,VWS V14.01,2013-07-02 13:44:00,
2013-07-02 09:49:00,57.3,56.8,30.03,North,350,2.3,2.3,98,0.00,,---,0.46,VWS V14.01,2013-07-02 13:49:00,
2013-07-02 09:54:00,57.3,56.8,30.03,North,350,2.3,2.3,98,0.00,,---,0.46,VWS V14.01,2013-07-02 13:54:00,
2013-07-02 09:59:00,57.3,56.8,30.03,North,350,2.3,2.3,98,0.00,,---,0.46,VWS V14.01,2013-07-02 13:59:00,
2013-07-02 10:04:00,57.5,56.9,30.03,North,350,0.0,2.3,98,0.00,,---,0.46,VWS V14.01,2013-07-02 14:04:00,
2013-07-02 10:09:00,57.5,56.9,30.03,North,350,0.0,0.0,98,0.00,,---,0.46,VWS V14.01,2013-07-02 14:09:00,
2013-07-02 10:14:00,57.7,57.1,30.03,North,350,0.0,0.0,98,0.00,,---,0.46,VWS V14.01,2013-07-02 14:14:00,
2013-07-02 10:19:00,57.7,57.1,30.03,NW,305,0.0,0.0,98,0.00,,---,0.46,VWS V14.01,2013-07-02 14:19:00,
2013-07-02 10:24:00,57.9,57.3,30.03,NW,305,0.0,0.0,98,0.00,,---,0.46,VWS V14.01,2013-07-02 14:24:00,
2013-07-02 10:29:00,57.9,57.3,30.03,NW,305,0.0,0.0,98,0.00,,---,0.46,VWS V14.01,2013-07-02 14:29:00,
2013-07-02 10:34:00,58.0,57.5,30.03,NW,305,0.0,0.0,98,0.00,,---,0.46,VWS V14.01,2013-07-02 14:34:00,
2013-07-02 10:39:00,58.2,57.7,30.03,NW,305,0.0,0.0,98,0.00,,---,0.46,VWS V14.01,2013-07-02 14:39:00,
2013-07-02 10:44:00,58.4,57.8,30.03,NE,35,1.7,3.6,98,0.00,,---,0.46,VWS V14.01,2013-07-02 14:44:00,
2013-07-02 10:49:00,58.6,58.0,30.03,North,350,2.0,2.0,98,0.00,,---,0.46,VWS V14.01,2013-07-02 14:49:00,
2013-07-02 10:54:00,58.8,58.2,30.03,North,350,3.0,3.6,98,0.00,,---,0.46,VWS V14.01,2013-07-02 14:54:00,
2013-07-02 10:59:00,58.9,58.4,30.03,NE,35,3.0,3.0,98,0.00,,---,0.46,VWS V14.01,2013-07-02 14:59:00,
2013-07-02 11:04:00,58.9,58.4,30.03,East,80,0.0,0.0,98,0.00,,---,0.46,VWS V14.01,2013-07-02 15:04:00,
2013-07-02 11:09:00,58.9,58.4,30.03,SE,125,0.0,0.0,98,0.00,,---,0.46,VWS V14.01,2013-07-02 15:09:00,
2013-07-02 11:14:00,58.9,58.4,30.03,North,350,2.0,2.0,98,0.00,,---,0.46,VWS V14.01,2013-07-02 15:14:00,
2013-07-02 11:19:00,59.1,58.6,30.03,NE,35,0.0,1.3,98,0.00,,---,0.46,VWS V14.01,2013-07-02 15:19:00,
2013-07-02 11:24:00,59.3,58.7,30.03,NE,35,2.3,2.3,98,0.00,,---,0.46,VWS V14.01,2013-07-02 15:24:00,
2013-07-02 11:29:00,59.5,58.9,30.03,NE,35,1.7,1.7,98,0.00,,---,0.46,VWS V14.01,2013-07-02 15:29:00,
2013-07-02 11:34:00,59.7,59.1,30.03,North,350,3.0,3.0,98,0.00,,---,0.46,VWS V14.01,2013-07-02 15:34:00,
2013-07-02 11:39:00,59.7,59.1,30.03,NE,35,0.0,3.0,98,0.00,,---,0.46,VWS V14.01,2013-07-02 15:39:00,
2013-07-02 11:44:00,59.8,59.3,30.03,NE,35,3.0,3.0,98,0.00,,---,0.46,VWS V14.01,2013-07-02 15:44:00,
2013-07-02 11:49:00,60.0,59.5,30.03,North,350,3.6,3.6,98,0.00,,---,0.46,VWS V14.01,2013-07-02 15:49:00,
2013-07-02 11:55:00,60.0,59.5,30.03,North,350,2.0,2.0,98,0.00,,---,0.46,VWS V14.01,2013-07-02 15:55:00,
2013-07-02 12:00:00,60.2,59.6,30.03,NE,35,0.0,2.3,98,0.00,,---,0.46,VWS V14.01,2013-07-02 16:00:00,
2013-07-02 12:05:00,60.2,59.6,30.03,NE,35,1.3,1.3,98,0.00,,---,0.46,VWS V14.01,2013-07-02 16:05:00,
2013-07-02 12:10:00,60.2,59.6,30.03,NE,35,0.0,0.0,98,0.00,,---,0.46,VWS V14.01,2013-07-02 16:10:00,
2013-07-02 12:15:00,60.4,59.8,30.03,North,350,1.7,3.0,98,0.00,,---,0.46,VWS V14.01,2013-07-02 16:15:00,
2013-07-02 12:20:00,60.4,59.8,30.03,NW,305,0.0,0.0,98,0.00,,---,0.46,VWS V14.01,2013-07-02 16:20:00,
2013-07-02 12:25:00,60.6,60.0,30.03,East,80,1.3,1.3,98,0.00,,---,0.46,VWS V14.01,2013-07-02 16:25:00,
2013-07-02 12:30:00,60.6,60.0,30.03,SE,125,0.0,0.0,98,0.00,,---,0.46,VWS V14.01,2013-07-02 16:30:00,
2013-07-02 12:35:00,60.6,60.0,30.03,SE,125,0.0,0.0,98,0.00,,---,0.46,VWS V14.01,2013-07-02 16:35:00,
2013-07-02 12:40:00,60.6,60.0,30.03,NW,305,2.0,2.0,98,0.00,,---,0.46,VWS V14.01,2013-07-02 16:40:00,
2013-07-02 12:45:00,60.6,60.0,30.03,NW,305,2.0,2.0,98,0.04,,---,0.50,VWS V14.01,2013-07-02 16:45:00,
2013-07-02 12:50:00,60.6,60.0,30.03,NW,305,2.0,2.0,98,0.08,,---,0.54,VWS V14.01,2013-07-02 16:50:00,
2013-07-02 12:55:00,60.7,60.2,30.03,NW,305,2.0,2.0,98,0.08,,---,0.54,VWS V14.01,2013-07-02 16:55:00,
2013-07-02 13:00:00,60.7,60.2,30.03,NW,305,2.0,2.0,98,0.08,,---,0.54,VWS V14.01,2013-07-02 17:00:00,
2013-07-02 13:05:00,60.9,60.3,30.03,NW,305,2.0,2.0,98,0.12,,---,0.58,VWS V14.01,2013-07-02 17:05:00,
2013-07-02 13:10:00,60.9,60.3,30.03,NW,305,2.0,2.0,98,0.16,,---,0.62,VWS V14.01,2013-07-02 17:10:00,
2013-07-02 13:15:00,61.1,60.5,30.03,NW,305,2.0,2.0,98,0.16,,---,0.62,VWS V14.01,2013-07-02 17:15:00,
2013-07-02 13:20:00,61.1,60.5,30.03,NW,305,2.0,2.0,98,0.16,,---,0.62,VWS V14.01,2013-07-02 17:20:00,
2013-07-02 13:25:00,61.3,60.7,30.03,NW,305,2.0,2.0,98,0.16,,---,0.62,VWS V14.01,2013-07-02 17:25:00,
2013-07-02 13:30:00,61.3,60.7,30.03,NW,305,2.0,2.0,98,0.16,,---,0.62,VWS V14.01,2013-07-02 17:30:00,
2013-07-02 13:35:00,61.5,60.9,30.03,NW,305,2.0,2.0,98,0.16,,---,0.62,VWS V14.01,2013-07-02 17:35:00,
2013-07-02 13:40:00,61.5,60.9,30.03,NW,305,2.0,2.0,98,0.16,,---,0.62,VWS V14.01,2013-07-02 17:40:00,
2013-07-02 13:45:00,61.6,61.1,30.03,NW,305,2.0,2.0,98,0.12,,---,0.62,VWS V14.01,2013-07-02 17:45:00,
2013-07-02 13:50:00,61.8,61.2,30.03,NW,305,0.0,0.0,98,0.08,,---,0.62,VWS V14.01,2013-07-02 17:50:00,
2013-07-02 13:56:00,62.0,61.4,30.03,NW,305,1.7,1.7,98,0.08,,---,0.62,VWS V14.01,2013-07-02 17:56:00,
2013-07-02 14:01:00,62.0,61.4,30.03,North,350,0.0,3.3,98,0.08,,---,0.62,VWS V14.01,2013-07-02 18:01:00,
2013-07-02 14:06:00,62.0,61.4,30.03,NE,35,1.3,1.3,98,0.04,,---,0.62,VWS V14.01,2013-07-02 18:06:00,
2013-07-02 14:11:00,62.0,61.4,30.03,North,350,1.7,1.7,98,0.00,,---,0.62,VWS V14.01,2013-07-02 18:11:00,
2013-07-02 14:16:00,62.4,61.8,30.03,NE,35,2.0,2.0,98,0.00,,---,0.62,VWS V14.01,2013-07-02 18:16:00,
2013-07-02 14:21:00,62.5,62.0,30.03,North,350,1.7,1.7,98,0.00,,---,0.62,VWS V14.01,2013-07-02 18:21:00,
2013-07-02 14:26:00,62.9,62.3,30.03,NE,35,0.0,0.0,98,0.00,,---,0.62,VWS V14.01,2013-07-02 18:26:00,
2013-07-02 14:31:00,62.9,62.3,30.03,North,350,3.0,3.0,98,0.00,,---,0.62,VWS V14.01,2013-07-02 18:31:00,
2013-07-02 14:36:00,63.1,62.5,30.03,North,350,3.0,3.0,98,0.00,,---,0.62,VWS V14.01,2013-07-02 18:36:00,
2013-07-02 14:41:00,63.1,62.5,30.03,North,350,3.0,3.0,98,0.00,,---,0.62,VWS V14.01,2013-07-02 18:41:00,
2013-07-02 14:46:00,63.3,62.7,30.03,North,350,4.0,4.0,98,0.00,,---,0.62,VWS V14.01,2013-07-02 18:46:00,
2013-07-02 14:51:00,63.1,62.5,30.03,North,350,0.0,0.0,98,0.00,,---,0.62,VWS V14.01,2013-07-02 18:51:00,
2013-07-02 14:56:00,63.3,62.7,30.03,NE,35,0.0,0.0,98,0.00,,---,0.62,VWS V14.01,2013-07-02 18:56:00,
2013-07-02 15:01:00,63.3,62.7,30.03,NE,35,0.0,0.0,98,0.00,,---,0.62,VWS V14.01,2013-07-02 19:01:00,
2013-07-02 15:06:00,63.4,62.9,30.03,NE,35,0.0,0.0,98,0.00,,---,0.62,VWS V14.01,2013-07-02 19:06:00,
2013-07-02 15:11:00,63.6,63.0,30.03,NE,35,0.0,0.0,98,0.00,,---,0.62,VWS V14.01,2013-07-02 19:11:00,
2013-07-02 15:16:00,63.4,62.9,30.03,North,350,0.0,0.0,98,0.00,,---,0.62,VWS V14.01,2013-07-02 19:16:00,
2013-07-02 15:21:00,63.4,62.9,30.03,NW,305,1.7,1.7,98,0.00,,---,0.62,VWS V14.01,2013-07-02 19:21:00,
2013-07-02 15:26:00,63.4,62.9,30.03,NE,35,0.0,1.3,98,0.00,,---,0.62,VWS V14.01,2013-07-02 19:26:00,
2013-07-02 15:31:00,63.6,63.0,30.03,North,350,3.6,3.6,98,0.00,,---,0.62,VWS V14.01,2013-07-02 19:31:00,
2013-07-02 15:36:00,63.6,63.0,30.03,NW,305,0.0,0.0,98,0.00,,---,0.62,VWS V14.01,2013-07-02 19:36:00,
2013-07-02 15:41:00,63.6,63.0,30.03,North,350,1.7,1.7,98,0.00,,---,0.62,VWS V14.01,2013-07-02 19:41:00,
2013-07-02 15:46:00,63.6,63.0,30.03,North,350,0.0,0.0,98,0.00,,---,0.62,VWS V14.01,2013-07-02 19:46:00,
2013-07-02 15:51:00,63.8,63.2,30.00,NW,305,0.0,0.0,98,0.00,,---,0.62,VWS V14.01,2013-07-02 19:51:00,
2013-07-02 15:56:00,63.8,63.2,30.00,North,350,0.0,0.0,98,0.00,,---,0.62,VWS V14.01,2013-07-02 19:56:00,
2013-07-02 16:01:00,64.0,63.4,30.00,NW,305,0.0,0.0,98,0.00,,---,0.62,VWS V14.01,2013-07-02 20:01:00,
2013-07-02 16:06:00,63.8,63.2,30.00,North,350,0.0,0.0,98,0.00,,---,0.62,VWS V14.01,2013-07-02 20:06:00,
2013-07-02 16:11:00,64.0,63.4,30.00,North,350,0.0,0.0,98,0.00,,---,0.62,VWS V14.01,2013-07-02 20:11:00,
2013-07-02 16:16:00,64.0,63.4,30.00,North,350,0.0,0.0,98,0.00,,---,0.62,VWS V14.01,2013-07-02 20:16:00,
2013-07-02 16:22:00,64.0,63.4,30.00,North,350,0.0,0.0,98,0.00,,---,0.62,VWS V14.01,2013-07-02 20:22:00,
2013-07-02 16:27:00,64.2,63.6,30.00,NW,305,0.0,0.0,98,0.00,,---,0.62,VWS V14.01,2013-07-02 20:27:00,
2013-07-02 16:32:00,64.2,63.6,30.00,NW,305,0.0,0.0,98,0.00,,---,0.62,VWS V14.01,2013-07-02 20:32:00,
2013-07-02 16:37:00,64.2,63.6,30.00,NW,305,0.0,0.0,98,0.00,,---,0.62,VWS V14.01,2013-07-02 20:37:00,
2013-07-02 16:42:00,64.2,63.6,30.00,NW,305,0.0,0.0,98,0.00,,---,0.62,VWS V14.01,2013-07-02 20:42:00,
2013-07-02 16:47:00,64.2,63.6,30.00,NW,305,0.0,0.0,98,0.00,,---,0.62,VWS V14.01,2013-07-02 20:47:00,
2013-07-02 16:52:00,64.2,63.6,30.00,NW,305,0.0,0.0,98,0.00,,---,0.62,VWS V14.01,2013-07-02 20:52:00,
2013-07-02 16:57:00,64.2,63.6,30.00,NW,305,1.7,1.7,98,0.00,,---,0.62,VWS V14.01,2013-07-02 20:57:00,
2013-07-02 17:02:00,64.3,63.8,30.00,NW,305,1.7,1.7,98,0.00,,---,0.62,VWS V14.01,2013-07-02 21:02:00,
2013-07-02 17:07:00,64.3,63.8,30.00,North,350,0.0,0.0,98,0.00,,---,0.62,VWS V14.01,2013-07-02 21:07:00,
2013-07-02 17:12:00,64.3,63.8,30.00,North,350,0.0,0.0,98,0.00,,---,0.62,VWS V14.01,2013-07-02 21:12:00,
2013-07-02 17:17:00,64.2,63.6,30.00,North,350,0.0,0.0,98,0.00,,---,0.62,VWS V14.01,2013-07-02 21:17:00,
2013-07-02 17:22:00,64.2,63.6,30.00,WNW,282,4.0,4.0,98,0.00,,---,0.62,VWS V14.01,2013-07-02 21:22:00,
2013-07-02 17:27:00,64.2,63.6,30.00,WNW,282,4.0,4.0,98,0.00,,---,0.62,VWS V14.01,2013-07-02 21:27:00,
2013-07-02 17:32:00,64.2,63.6,30.00,WNW,282,4.0,4.0,98,0.00,,---,0.62,VWS V14.01,2013-07-02 21:32:00,
2013-07-02 17:37:00,64.2,63.6,30.00,WNW,282,4.0,4.0,98,0.00,,---,0.62,VWS V14.01,2013-07-02 21:37:00,
2013-07-02 17:42:00,64.2,63.6,30.00,WNW,282,4.0,4.0,98,0.00,,---,0.62,VWS V14.01,2013-07-02 21:42:00,
2013-07-02 17:47:00,64.2,63.6,30.00,WNW,282,4.0,4.0,98,0.00,,---,0.62,VWS V14.01,2013-07-02 21:47:00,
2013-07-02 17:52:00,64.2,63.6,30.00,WNW,282,4.0,4.0,98,0.00,,---,0.62,VWS V14.01,2013-07-02 21:52:00,
2013-07-02 17:57:00,64.2,63.6,30.00,WNW,282,4.0,4.0,98,0.00,,---,0.62,VWS V14.01,2013-07-02 21:57:00,
2013-07-02 18:02:00,64.3,63.8,30.00,NW,305,0.0,0.0,98,0.00,,---,0.62,VWS V14.01,2013-07-02 22:02:00,
2013-07-02 18:07:00,64.5,64.0,30.00,NW,305,0.0,0.0,98,0.00,,---,0.62,VWS V14.01,2013-07-02 22:07:00,
2013-07-02 18:12:00,64.5,64.0,30.00,NW,305,0.0,0.0,98,0.00,,---,0.62,VWS V14.01,2013-07-02 22:12:00,
2013-07-02 18:17:00,64.5,64.0,30.00,NW,305,0.0,0.0,98,0.00,,---,0.62,VWS V14.01,2013-07-02 22:17:00,
2013-07-02 18:22:00,64.7,64.1,30.00,NW,305,0.0,0.0,98,0.00,,---,0.62,VWS V14.01,2013-07-02 22:22:00,
2013-07-02 18:28:00,64.7,64.1,30.00,North,350,1.3,1.3,98,0.00,,---,0.62,VWS V14.01,2013-07-02 22:28:00,
2013-07-02 18:33:00,64.9,64.3,30.00,North,350,0.0,0.0,98,0.00,,---,0.62,VWS V14.01,2013-07-02 22:33:00,
2013-07-02 18:38:00,64.9,64.3,30.00,North,350,2.0,2.0,98,0.00,,---,0.62,VWS V14.01,2013-07-02 22:38:00,
2013-07-02 18:43:00,65.1,64.5,30.00,North,350,0.0,0.0,98,0.00,,---,0.62,VWS V14.01,2013-07-02 22:43:00,
2013-07-02 18:48:00,65.2,64.7,30.00,North,350,0.0,0.0,98,0.00,,---,0.62,VWS V14.01,2013-07-02 22:48:00,
2013-07-02 18:53:00,65.2,64.7,30.00,NW,305,0.0,0.0,98,0.00,,---,0.62,VWS V14.01,2013-07-02 22:53:00,
2013-07-02 18:58:00,65.4,64.8,30.00,North,350,0.0,0.0,98,0.00,,---,0.62,VWS V14.01,2013-07-02 22:58:00,
2013-07-02 19:03:00,65.4,64.8,30.00,North,350,0.0,0.0,98,0.00,,---,0.62,VWS V14.01,2013-07-02 23:03:00,
2013-07-02 19:08:00,65.4,64.8,30.00,North,350,0.0,0.0,98,0.00,,---,0.62,VWS V14.01,2013-07-02 23:08:00,
2013-07-02 19:13:00,65.4,64.8,30.00,North,350,0.0,0.0,98,0.00,,---,0.62,VWS V14.01,2013-07-02 23:13:00,
2013-07-02 19:14:00,65.4,64.8,30.00,North,350,0.0,0.0,98,0.00,,---,0.62,VWS V14.01,2013-07-02 23:14:00,
2013-07-02 19:20:00,65.6,65.0,30.00,North,350,0.0,0.0,98,0.00,,---,0.62,VWS V14.01,2013-07-02 23:20:00,
2013-07-02 19:25:00,65.6,65.0,30.00,North,350,0.0,0.0,98,0.00,,---,0.62,VWS V14.01,2013-07-02 23:25:00,
2013-07-02 19:30:00,65.6,65.0,30.00,NE,35,0.0,0.0,98,0.00,,---,0.62,VWS V14.01,2013-07-02 23:30:00,
2013-07-02 19:35:00,65.6,65.0,30.00,NE,35,0.0,0.0,98,0.00,,---,0.62,VWS V14.01,2013-07-02 23:35:00,
2013-07-02 19:40:00,65.4,64.8,30.00,NE,35,0.0,0.0,98,0.00,,---,0.62,VWS V14.01,2013-07-02 23:40:00,
2013-07-02 19:45:00,65.4,64.8,30.00,NE,35,0.0,0.0,98,0.00,,---,0.62,VWS V14.01,2013-07-02 23:45:00,
2013-07-02 19:50:00,65.2,64.7,30.00,NE,35,0.0,0.0,98,0.00,,---,0.62,VWS V14.01,2013-07-02 23:50:00,
2013-07-02 19:55:00,65.2,64.7,30.00,NE,35,0.0,0.0,98,0.00,,---,0.62,VWS V14.01,2013-07-02 23:55:00,
2013-07-02 19:57:00,65.2,64.7,30.00,NE,35,0.0,0.0,98,0.00,,---,0.62,VWS V14.01,2013-07-02 23:57:00,
2013-07-02 20:02:00,65.2,64.7,30.00,NE,35,0.0,0.0,98,0.00,,---,0.62,VWS V14.01,2013-07-03 00:02:00,
2013-07-02 20:06:00,65.2,64.7,30.03,NE,35,0.0,0.0,98,0.00,,---,0.62,VWS V14.01,2013-07-03 00:06:00,
2013-07-02 20:11:00,65.2,64.7,30.03,NE,35,0.0,0.0,98,0.00,,---,0.62,VWS V14.01,2013-07-03 00:11:00,
2013-07-02 20:16:00,65.2,64.7,30.03,NE,35,0.0,0.0,98,0.00,,---,0.62,VWS V14.01,2013-07-03 00:16:00,
2013-07-02 20:21:00,65.2,64.7,30.03,NE,35,0.0,0.0,98,0.00,,---,0.62,VWS V14.01,2013-07-03 00:21:00,
2013-07-02 20:26:00,65.2,64.7,30.03,NE,35,0.0,0.0,98,0.00,,---,0.62,VWS V14.01,2013-07-03 00:26:00,
2013-07-02 20:28:00,65.1,64.5,30.03,NE,35,0.0,0.0,98,0.00,,---,0.62,VWS V14.01,2013-07-03 00:28:00,
2013-07-02 20:33:00,65.1,64.5,30.03,NE,35,0.0,0.0,98,0.00,,---,0.62,VWS V14.01,2013-07-03 00:33:00,
2013-07-02 20:34:00,65.1,64.5,30.03,NE,35,0.0,0.0,98,0.00,,---,0.62,VWS V14.01,2013-07-03 00:34:00,
2013-07-02 20:39:00,65.1,64.5,30.03,NE,35,0.0,0.0,98,0.00,,---,0.62,VWS V14.01,2013-07-03 00:39:00,
2013-07-02 20:44:00,65.2,64.7,30.03,NE,35,0.0,0.0,98,0.00,,---,0.62,VWS V14.01,2013-07-03 00:44:00,
2013-07-02 20:49:00,65.2,64.7,30.03,NE,35,0.0,0.0,98,0.00,,---,0.62,VWS V14.01,2013-07-03 00:49:00,
2013-07-02 20:54:00,65.2,64.7,30.03,NW,305,0.0,0.0,98,0.00,,---,0.62,VWS V14.01,2013-07-03 00:54:00,
2013-07-02 21:00:00,65.1,64.5,30.03,NW,305,0.0,0.0,98,0.00,,---,0.62,VWS V14.01,2013-07-03 01:00:00,
2013-07-02 21:01:00,65.1,64.5,30.03,NW,305,0.0,0.0,98,0.00,,---,0.62,VWS V14.01,2013-07-03 01:01:00,
2013-07-02 21:03:00,65.1,64.5,30.03,NW,305,0.0,0.0,98,0.00,,---,0.62,VWS V14.01,2013-07-03 01:03:00,
2013-07-02 21:08:00,65.1,64.5,30.03,NW,305,0.0,0.0,98,0.00,,---,0.62,VWS V14.01,2013-07-03 01:08:00,
2013-07-02 21:10:00,64.9,64.3,30.03,North,350,0.0,0.0,98,0.00,,---,0.62,VWS V14.01,2013-07-03 01:10:00,
2013-07-02 21:15:00,64.9,64.3,30.03,NNW,328,0.0,0.0,98,0.00,,---,0.62,VWS V14.01,2013-07-03 01:15:00,
2013-07-02 21:20:00,64.7,64.1,30.00,NW,305,0.0,0.0,98,0.00,,---,0.62,VWS V14.01,2013-07-03 01:20:00,
2013-07-02 21:25:00,64.7,64.1,30.00,NW,305,0.0,0.0,98,0.00,,---,0.62,VWS V14.01,2013-07-03 01:25:00,
2013-07-02 21:26:00,64.5,64.0,30.00,NW,305,0.0,0.0,98,0.00,,---,0.62,VWS V14.01,2013-07-03 01:26:00,
2013-07-02 21:31:00,64.5,64.0,30.00,NW,305,0.0,0.0,98,0.00,,---,0.62,VWS V14.01,2013-07-03 01:31:00,
2013-07-02 21:36:00,64.5,64.0,30.00,NW,305,0.0,0.0,98,0.00,,---,0.62,VWS V14.01,2013-07-03 01:36:00,
2013-07-02 21:41:00,64.3,63.8,30.00,NW,305,0.0,0.0,98,0.00,,---,0.62,VWS V14.01,2013-07-03 01:41:00,
2013-07-02 21:47:00,64.3,63.8,30.00,NW,305,0.0,0.0,98,0.00,,---,0.62,VWS V14.01,2013-07-03 01:47:00,
2013-07-02 21:49:00,64.3,63.8,30.03,NW,305,0.0,0.0,98,0.00,,---,0.62,VWS V14.01,2013-07-03 01:49:00,
2013-07-02 21:51:00,64.3,63.8,30.03,NW,305,0.0,0.0,98,0.00,,---,0.62,VWS V14.01,2013-07-03 01:51:00,
2013-07-02 21:58:00,64.2,63.6,30.03,NW,305,0.0,0.0,98,0.00,,---,0.62,VWS V14.01,2013-07-03 01:58:00,
2013-07-02 22:04:00,64.2,63.6,30.03,NW,305,0.0,0.0,98,0.00,,---,0.62,VWS V14.01,2013-07-03 02:04:00,
2013-07-02 22:09:00,64.2,63.6,30.03,North,350,0.0,0.0,98,0.00,,---,0.62,VWS V14.01,2013-07-03 02:09:00,
2013-07-02 22:14:00,64.2,63.6,30.03,NW,305,0.0,0.0,98,0.00,,---,0.62,VWS V14.01,2013-07-03 02:14:00,
2013-07-02 22:20:00,64.0,63.4,30.03,NW,305,0.0,0.0,98,0.00,,---,0.62,VWS V14.01,2013-07-03 02:20:00,
2013-07-02 22:25:00,63.8,63.2,30.03,North,350,0.0,0.0,98,0.00,,---,0.62,VWS V14.01,2013-07-03 02:25:00,
2013-07-02 22:30:00,63.6,63.0,30.03,North,350,0.0,0.0,98,0.00,,---,0.62,VWS V14.01,2013-07-03 02:30:00,
2013-07-02 22:32:00,63.6,63.0,30.03,North,350,0.0,0.0,98,0.00,,---,0.62,VWS V14.01,2013-07-03 02:32:00,
2013-07-02 22:37:00,63.6,63.0,30.03,North,350,0.0,0.0,98,0.00,,---,0.62,VWS V14.01,2013-07-03 02:37:00,
2013-07-02 22:43:00,63.6,63.0,30.03,North,350,0.0,0.0,98,0.00,,---,0.62,VWS V14.01,2013-07-03 02:43:00,
2013-07-02 22:46:00,63.6,63.0,30.03,North,350,0.0,0.0,98,0.00,,---,0.62,VWS V14.01,2013-07-03 02:46:00,
2013-07-02 22:52:00,63.4,62.9,30.03,NE,35,0.0,0.0,98,0.00,,---,0.62,VWS V14.01,2013-07-03 02:52:00,
2013-07-02 22:58:00,63.4,62.9,30.03,NE,35,0.0,0.0,98,0.00,,---,0.62,VWS V14.01,2013-07-03 02:58:00,
2013-07-02 23:03:00,63.4,62.9,30.03,North,350,0.0,0.0,98,0.00,,---,0.62,VWS V14.01,2013-07-03 03:03:00,
2013-07-02 23:08:00,63.3,62.7,30.03,North,350,0.0,0.0,98,0.00,,---,0.62,VWS V14.01,2013-07-03 03:08:00,
2013-07-02 23:14:00,63.3,62.7,30.03,North,350,0.0,0.0,98,0.00,,---,0.62,VWS V14.01,2013-07-03 03:14:00,
2013-07-02 23:19:00,63.3,62.7,30.03,North,350,0.0,0.0,98,0.00,,---,0.62,VWS V14.01,2013-07-03 03:19:00,
2013-07-02 23:22:00,63.4,62.9,30.03,North,350,0.0,0.0,98,0.00,,---,0.62,VWS V14.01,2013-07-03 03:22:00,
2013-07-02 23:28:00,63.4,62.9,30.03,North,350,0.0,0.0,98,0.00,,---,0.62,VWS V14.01,2013-07-03 03:28:00,
2013-07-02 23:33:00,63.4,62.9,30.03,North,350,0.0,0.0,98,0.00,,---,0.62,VWS V14.01,2013-07-03 03:33:00,
2013-07-02 23:38:00,63.4,62.9,30.03,North,350,0.0,0.0,98,0.00,,---,0.62,VWS V14.01,2013-07-03 03:38:00,
2013-07-02 23:40:00,63.4,62.9,30.03,North,350,0.0,0.0,98,0.00,,---,0.62,VWS V14.01,2013-07-03 03:40:00,
2013-07-02 23:45:00,63.4,62.9,30.03,North,350,0.0,0.0,98,0.00,,---,0.62,VWS V14.01,2013-07-03 03:45:00,
2013-07-02 23:50:00,63.3,62.7,30.03,North,350,0.0,0.0,98,0.00,,---,0.62,VWS V14.01,2013-07-03 03:50:00,
2013-07-02 23:56:00,63.3,62.7,30.03,North,350,0.0,0.0,98,0.00,,---,0.62,VWS V14.01,2013-07-03 03:56:00,